sensor_id;sensor_type;location;lat;lon;timestamp;pressure;altitude;pressure_sealevel;temperature;humidity
76778;BME280;65721;50.118;8.714;2022-12-10T00:01:50;99310.27;;;2.06;68.04
76778;BME280;65721;50.118;8.714;2022-12-10T00:04:18;99313.80;;;2.03;68.10
76778;BME280;65721;50.118;8.714;2022-12-10T00:06:43;99314.27;;;2.01;67.97
76778;BME280;65721;50.118;8.714;2022-12-10T00:09:12;99314.58;;;1.99;67.94
76778;BME280;65721;50.118;8.714;2022-12-10T00:11:38;99314.86;;;1.96;68.06
76778;BME280;65721;50.118;8.714;2022-12-10T00:14:04;99315.67;;;1.94;68.05
76778;BME280;65721;50.118;8.714;2022-12-10T00:16:32;99320.21;;;1.92;68.09
76778;BME280;65721;50.118;8.714;2022-12-10T00:18:59;99322.41;;;1.91;68.28
76778;BME280;65721;50.118;8.714;2022-12-10T00:21:28;99326.92;;;1.89;68.24
76778;BME280;65721;50.118;8.714;2022-12-10T00:23:54;99327.90;;;1.87;68.36
76778;BME280;65721;50.118;8.714;2022-12-10T00:26:24;99325.05;;;1.88;68.32
76778;BME280;65721;50.118;8.714;2022-12-10T00:28:51;99325.59;;;1.89;68.17
76778;BME280;65721;50.118;8.714;2022-12-10T00:31:23;99318.02;;;1.92;68.34
76778;BME280;65721;50.118;8.714;2022-12-10T00:33:49;99321.91;;;1.92;68.09
76778;BME280;65721;50.118;8.714;2022-12-10T00:36:21;99322.94;;;1.94;68.12
76778;BME280;65721;50.118;8.714;2022-12-10T00:38:48;99321.59;;;1.94;68.23
76778;BME280;65721;50.118;8.714;2022-12-10T00:41:14;99322.80;;;1.96;68.21
76778;BME280;65721;50.118;8.714;2022-12-10T00:43:41;99322.81;;;1.96;68.04
76778;BME280;65721;50.118;8.714;2022-12-10T00:46:08;99317.39;;;1.96;67.99
76778;BME280;65721;50.118;8.714;2022-12-10T00:48:34;99317.53;;;1.94;68.02
76778;BME280;65721;50.118;8.714;2022-12-10T00:51:05;99318.56;;;1.95;68.00
76778;BME280;65721;50.118;8.714;2022-12-10T00:53:33;99322.96;;;1.95;67.86
76778;BME280;65721;50.118;8.714;2022-12-10T00:55:59;99324.48;;;1.95;67.81
76778;BME280;65721;50.118;8.714;2022-12-10T00:58:30;99320.89;;;1.92;67.87
76778;BME280;65721;50.118;8.714;2022-12-10T01:01:16;99322.37;;;1.90;67.93
76778;BME280;65721;50.118;8.714;2022-12-10T01:03:42;99319.48;;;1.89;67.94
76778;BME280;65721;50.118;8.714;2022-12-10T01:08:42;99324.38;;;1.88;67.84
76778;BME280;65721;50.118;8.714;2022-12-10T01:11:10;99323.31;;;1.85;67.74
76778;BME280;65721;50.118;8.714;2022-12-10T01:13:35;99323.76;;;1.82;67.72
76778;BME280;65721;50.118;8.714;2022-12-10T01:16:03;99328.29;;;1.79;67.67
76778;BME280;65721;50.118;8.714;2022-12-10T01:18:28;99335.51;;;1.77;67.71
76778;BME280;65721;50.118;8.714;2022-12-10T01:20:54;99336.31;;;1.75;67.73
76778;BME280;65721;50.118;8.714;2022-12-10T01:23:19;99338.12;;;1.71;67.90
76778;BME280;65721;50.118;8.714;2022-12-10T01:25:45;99336.54;;;1.68;68.00
76778;BME280;65721;50.118;8.714;2022-12-10T01:28:11;99338.74;;;1.68;67.94
76778;BME280;65721;50.118;8.714;2022-12-10T01:30:36;99341.81;;;1.69;67.75
76778;BME280;65721;50.118;8.714;2022-12-10T01:33:02;99348.79;;;1.71;67.80
76778;BME280;65721;50.118;8.714;2022-12-10T01:35:27;99349.00;;;1.74;67.71
76778;BME280;65721;50.118;8.714;2022-12-10T01:37:53;99355.95;;;1.74;67.72
76778;BME280;65721;50.118;8.714;2022-12-10T01:40:18;99356.77;;;1.74;67.70
76778;BME280;65721;50.118;8.714;2022-12-10T01:42:44;99356.40;;;1.72;67.60
76778;BME280;65721;50.118;8.714;2022-12-10T01:45:12;99359.79;;;1.71;67.60
76778;BME280;65721;50.118;8.714;2022-12-10T01:47:37;99360.56;;;1.67;67.61
76778;BME280;65721;50.118;8.714;2022-12-10T01:50:05;99360.68;;;1.65;67.57
76778;BME280;65721;50.118;8.714;2022-12-10T01:52:31;99364.05;;;1.63;67.35
76778;BME280;65721;50.118;8.714;2022-12-10T01:54:57;99364.48;;;1.61;67.49
76778;BME280;65721;50.118;8.714;2022-12-10T01:57:25;99368.33;;;1.58;67.53
76778;BME280;65721;50.118;8.714;2022-12-10T01:59:57;99368.58;;;1.53;67.63
76778;BME280;65721;50.118;8.714;2022-12-10T02:02:42;99370.20;;;1.49;67.63
76778;BME280;65721;50.118;8.714;2022-12-10T02:05:37;99370.44;;;1.44;67.62
76778;BME280;65721;50.118;8.714;2022-12-10T02:08:27;99374.10;;;1.41;67.80
76778;BME280;65721;50.118;8.714;2022-12-10T02:11:33;99373.02;;;1.38;67.89
76778;BME280;65721;50.118;8.714;2022-12-10T02:14:14;99368.56;;;1.35;67.89
76778;BME280;65721;50.118;8.714;2022-12-10T02:16:51;99365.79;;;1.32;68.05
76778;BME280;65721;50.118;8.714;2022-12-10T02:19:28;99367.30;;;1.31;68.12
76778;BME280;65721;50.118;8.714;2022-12-10T02:22:00;99363.54;;;1.28;67.96
76778;BME280;65721;50.118;8.714;2022-12-10T02:24:30;99361.11;;;1.26;68.22
76778;BME280;65721;50.118;8.714;2022-12-10T02:29:35;99353.09;;;1.22;68.19
76778;BME280;65721;50.118;8.714;2022-12-10T02:32:15;99351.06;;;1.22;67.95
76778;BME280;65721;50.118;8.714;2022-12-10T02:34:50;99350.70;;;1.21;68.00
76778;BME280;65721;50.118;8.714;2022-12-10T02:37:33;99352.84;;;1.19;68.18
76778;BME280;65721;50.118;8.714;2022-12-10T02:40:03;99350.60;;;1.17;68.33
76778;BME280;65721;50.118;8.714;2022-12-10T02:42:34;99350.24;;;1.15;68.29
76778;BME280;65721;50.118;8.714;2022-12-10T02:45:03;99352.23;;;1.14;68.15
76778;BME280;65721;50.118;8.714;2022-12-10T02:47:30;99356.05;;;1.10;68.32
76778;BME280;65721;50.118;8.714;2022-12-10T02:49:56;99353.59;;;1.07;68.48
76778;BME280;65721;50.118;8.714;2022-12-10T02:52:23;99356.44;;;1.05;68.43
76778;BME280;65721;50.118;8.714;2022-12-10T02:54:50;99357.40;;;1.03;68.59
76778;BME280;65721;50.118;8.714;2022-12-10T03:00:24;99360.46;;;0.95;68.57
76778;BME280;65721;50.118;8.714;2022-12-10T03:03:22;99362.77;;;0.93;68.79
76778;BME280;65721;50.118;8.714;2022-12-10T03:06:03;99363.95;;;0.92;68.93
76778;BME280;65721;50.118;8.714;2022-12-10T03:08:42;99364.25;;;0.90;68.89
76778;BME280;65721;50.118;8.714;2022-12-10T03:11:13;99362.00;;;0.88;68.96
76778;BME280;65721;50.118;8.714;2022-12-10T03:14:09;99360.27;;;0.86;69.04
76778;BME280;65721;50.118;8.714;2022-12-10T03:16:50;99357.17;;;0.84;69.21
76778;BME280;65721;50.118;8.714;2022-12-10T03:19:21;99357.66;;;0.83;69.22
76778;BME280;65721;50.118;8.714;2022-12-10T03:21:49;99359.48;;;0.81;69.26
76778;BME280;65721;50.118;8.714;2022-12-10T03:24:17;99357.30;;;0.82;69.43
76778;BME280;65721;50.118;8.714;2022-12-10T03:26:46;99354.14;;;0.84;69.32
76778;BME280;65721;50.118;8.714;2022-12-10T03:29:17;99353.02;;;0.87;69.37
76778;BME280;65721;50.118;8.714;2022-12-10T03:31:45;99348.13;;;0.88;69.31
76778;BME280;65721;50.118;8.714;2022-12-10T03:34:11;99348.02;;;0.90;69.35
76778;BME280;65721;50.118;8.714;2022-12-10T03:36:38;99344.95;;;0.89;69.30
76778;BME280;65721;50.118;8.714;2022-12-10T03:39:05;99342.71;;;0.88;69.28
76778;BME280;65721;50.118;8.714;2022-12-10T03:41:31;99341.86;;;0.88;69.31
76778;BME280;65721;50.118;8.714;2022-12-10T03:43:58;99341.52;;;0.86;69.34
76778;BME280;65721;50.118;8.714;2022-12-10T03:46:25;99340.80;;;0.85;69.42
76778;BME280;65721;50.118;8.714;2022-12-10T03:48:52;99346.34;;;0.83;69.47
76778;BME280;65721;50.118;8.714;2022-12-10T03:51:18;99345.45;;;0.81;69.62
76778;BME280;65721;50.118;8.714;2022-12-10T03:53:43;99341.14;;;0.77;69.55
76778;BME280;65721;50.118;8.714;2022-12-10T03:56:09;99339.19;;;0.73;69.73
76778;BME280;65721;50.118;8.714;2022-12-10T03:58:34;99344.00;;;0.69;69.96
76778;BME280;65721;50.118;8.714;2022-12-10T04:01:02;99346.50;;;0.67;69.93
76778;BME280;65721;50.118;8.714;2022-12-10T04:03:28;99349.88;;;0.67;70.04
76778;BME280;65721;50.118;8.714;2022-12-10T04:05:53;99349.19;;;0.66;70.24
76778;BME280;65721;50.118;8.714;2022-12-10T04:08:19;99351.55;;;0.66;70.22
76778;BME280;65721;50.118;8.714;2022-12-10T04:10:44;99351.91;;;0.67;70.19
76778;BME280;65721;50.118;8.714;2022-12-10T04:13:09;99353.09;;;0.67;70.29
76778;BME280;65721;50.118;8.714;2022-12-10T04:15:56;99353.94;;;0.67;70.20
76778;BME280;65721;50.118;8.714;2022-12-10T04:18:40;99354.43;;;0.66;70.12
76778;BME280;65721;50.118;8.714;2022-12-10T04:21:05;99356.15;;;0.68;70.23
76778;BME280;65721;50.118;8.714;2022-12-10T04:23:49;99359.54;;;0.69;70.13
76778;BME280;65721;50.118;8.714;2022-12-10T04:26:33;99357.70;;;0.70;70.27
76778;BME280;65721;50.118;8.714;2022-12-10T04:29:18;99358.07;;;0.71;70.10
76778;BME280;65721;50.118;8.714;2022-12-10T04:31:44;99356.86;;;0.70;70.14
76778;BME280;65721;50.118;8.714;2022-12-10T04:34:09;99363.46;;;0.70;71.07
76778;BME280;65721;50.118;8.714;2022-12-10T04:36:35;99365.33;;;0.70;70.47
76778;BME280;65721;50.118;8.714;2022-12-10T04:39:00;99364.32;;;0.70;70.48
76778;BME280;65721;50.118;8.714;2022-12-10T04:41:25;99365.77;;;0.68;70.33
76778;BME280;65721;50.118;8.714;2022-12-10T04:43:52;99360.86;;;0.67;70.53
76778;BME280;65721;50.118;8.714;2022-12-10T04:46:18;99359.47;;;0.65;70.54
76778;BME280;65721;50.118;8.714;2022-12-10T04:48:43;99358.77;;;0.64;70.45
76778;BME280;65721;50.118;8.714;2022-12-10T04:51:09;99359.73;;;0.62;70.51
76778;BME280;65721;50.118;8.714;2022-12-10T04:53:34;99361.73;;;0.61;70.74
76778;BME280;65721;50.118;8.714;2022-12-10T04:56:00;99363.37;;;0.59;70.57
76778;BME280;65721;50.118;8.714;2022-12-10T04:58:26;99364.52;;;0.57;70.67
76778;BME280;65721;50.118;8.714;2022-12-10T05:01:07;99367.38;;;0.57;70.81
76778;BME280;65721;50.118;8.714;2022-12-10T05:03:34;99364.30;;;0.55;70.73
76778;BME280;65721;50.118;8.714;2022-12-10T05:06:01;99365.85;;;0.56;70.77
76778;BME280;65721;50.118;8.714;2022-12-10T05:08:27;99365.20;;;0.57;70.78
76778;BME280;65721;50.118;8.714;2022-12-10T05:10:53;99367.27;;;0.59;70.73
76778;BME280;65721;50.118;8.714;2022-12-10T05:13:19;99366.45;;;0.61;70.84
76778;BME280;65721;50.118;8.714;2022-12-10T05:15:44;99366.89;;;0.64;70.73
76778;BME280;65721;50.118;8.714;2022-12-10T05:18:09;99372.83;;;0.66;70.75
76778;BME280;65721;50.118;8.714;2022-12-10T05:20:35;99374.01;;;0.66;70.76
76778;BME280;65721;50.118;8.714;2022-12-10T05:23:00;99376.52;;;0.65;70.78
76778;BME280;65721;50.118;8.714;2022-12-10T05:25:44;99374.44;;;0.63;70.71
76778;BME280;65721;50.118;8.714;2022-12-10T05:28:22;99376.09;;;0.60;70.79
76778;BME280;65721;50.118;8.714;2022-12-10T05:30:48;99378.42;;;0.60;70.88
76778;BME280;65721;50.118;8.714;2022-12-10T05:33:14;99378.52;;;0.57;70.92
76778;BME280;65721;50.118;8.714;2022-12-10T05:35:39;99379.30;;;0.54;70.97
76778;BME280;65721;50.118;8.714;2022-12-10T05:38:05;99380.14;;;0.54;71.10
76778;BME280;65721;50.118;8.714;2022-12-10T05:40:35;99386.05;;;0.54;71.11
76778;BME280;65721;50.118;8.714;2022-12-10T05:43:00;99388.40;;;0.52;71.24
76778;BME280;65721;50.118;8.714;2022-12-10T05:45:26;99388.35;;;0.51;71.28
76778;BME280;65721;50.118;8.714;2022-12-10T05:47:52;99389.01;;;0.50;71.35
76778;BME280;65721;50.118;8.714;2022-12-10T05:50:18;99391.84;;;0.48;71.43
76778;BME280;65721;50.118;8.714;2022-12-10T05:52:43;99393.02;;;0.48;71.39
76778;BME280;65721;50.118;8.714;2022-12-10T05:55:09;99392.21;;;0.49;71.43
76778;BME280;65721;50.118;8.714;2022-12-10T05:57:36;99392.63;;;0.53;71.35
76778;BME280;65721;50.118;8.714;2022-12-10T06:00:04;99391.83;;;0.55;71.38
76778;BME280;65721;50.118;8.714;2022-12-10T06:02:32;99396.98;;;0.59;71.24
76778;BME280;65721;50.118;8.714;2022-12-10T06:04:58;99397.04;;;0.62;71.42
76778;BME280;65721;50.118;8.714;2022-12-10T06:07:23;99397.46;;;0.64;71.29
76778;BME280;65721;50.118;8.714;2022-12-10T06:09:48;99397.54;;;0.67;71.36
76778;BME280;65721;50.118;8.714;2022-12-10T06:12:14;99395.73;;;0.70;71.20
76778;BME280;65721;50.118;8.714;2022-12-10T06:14:39;99399.63;;;0.70;71.13
76778;BME280;65721;50.118;8.714;2022-12-10T06:17:04;99401.53;;;0.72;71.24
76778;BME280;65721;50.118;8.714;2022-12-10T06:19:30;99406.80;;;0.74;71.17
76778;BME280;65721;50.118;8.714;2022-12-10T06:21:55;99409.67;;;0.73;71.27
76778;BME280;65721;50.118;8.714;2022-12-10T06:24:20;99410.17;;;0.73;71.29
76778;BME280;65721;50.118;8.714;2022-12-10T06:26:46;99412.58;;;0.74;71.52
76778;BME280;65721;50.118;8.714;2022-12-10T06:29:11;99408.02;;;0.75;71.55
76778;BME280;65721;50.118;8.714;2022-12-10T06:31:37;99413.13;;;0.77;71.53
76778;BME280;65721;50.118;8.714;2022-12-10T06:34:02;99413.86;;;0.79;71.62
76778;BME280;65721;50.118;8.714;2022-12-10T06:36:27;99419.86;;;0.82;71.63
76778;BME280;65721;50.118;8.714;2022-12-10T06:38:53;99425.20;;;0.87;71.62
76778;BME280;65721;50.118;8.714;2022-12-10T06:41:19;99429.03;;;0.92;71.65
76778;BME280;65721;50.118;8.714;2022-12-10T06:43:48;99430.70;;;0.99;71.56
76778;BME280;65721;50.118;8.714;2022-12-10T06:46:17;99427.46;;;1.05;71.67
76778;BME280;65721;50.118;8.714;2022-12-10T06:48:43;99426.04;;;1.10;71.61
76778;BME280;65721;50.118;8.714;2022-12-10T06:51:10;99426.65;;;1.14;71.57
76778;BME280;65721;50.118;8.714;2022-12-10T06:53:36;99432.86;;;1.20;71.57
76778;BME280;65721;50.118;8.714;2022-12-10T06:56:03;99439.90;;;1.25;71.52
76778;BME280;65721;50.118;8.714;2022-12-10T06:58:30;99439.95;;;1.28;71.55
76778;BME280;65721;50.118;8.714;2022-12-10T07:01:04;99443.40;;;1.30;71.35
76778;BME280;65721;50.118;8.714;2022-12-10T07:03:29;99441.90;;;1.32;71.29
76778;BME280;65721;50.118;8.714;2022-12-10T07:06:00;99446.19;;;1.34;71.40
76778;BME280;65721;50.118;8.714;2022-12-10T07:08:26;99448.07;;;1.35;71.26
76778;BME280;65721;50.118;8.714;2022-12-10T07:10:54;99452.69;;;1.37;71.25
76778;BME280;65721;50.118;8.714;2022-12-10T07:13:19;99455.75;;;1.37;71.05
76778;BME280;65721;50.118;8.714;2022-12-10T07:15:44;99456.27;;;1.38;71.31
76778;BME280;65721;50.118;8.714;2022-12-10T07:18:10;99457.27;;;1.39;71.09
76778;BME280;65721;50.118;8.714;2022-12-10T07:20:36;99462.58;;;1.41;71.09
76778;BME280;65721;50.118;8.714;2022-12-10T07:23:01;99466.41;;;1.47;70.99
76778;BME280;65721;50.118;8.714;2022-12-10T07:25:26;99467.89;;;1.52;70.97
76778;BME280;65721;50.118;8.714;2022-12-10T07:27:52;99471.23;;;1.58;70.95
76778;BME280;65721;50.118;8.714;2022-12-10T07:30:17;99471.64;;;1.62;70.74
76778;BME280;65721;50.118;8.714;2022-12-10T07:32:43;99473.91;;;1.65;70.71
76778;BME280;65721;50.118;8.714;2022-12-10T07:35:08;99475.16;;;1.68;70.54
76778;BME280;65721;50.118;8.714;2022-12-10T07:37:33;99475.42;;;1.73;70.50
76778;BME280;65721;50.118;8.714;2022-12-10T07:39:59;99479.23;;;1.77;70.59
76778;BME280;65721;50.118;8.714;2022-12-10T07:42:24;99475.73;;;1.80;70.54
76778;BME280;65721;50.118;8.714;2022-12-10T07:44:50;99476.44;;;1.81;70.37
76778;BME280;65721;50.118;8.714;2022-12-10T07:47:16;99475.45;;;1.83;70.37
76778;BME280;65721;50.118;8.714;2022-12-10T07:49:42;99471.05;;;1.83;70.20
76778;BME280;65721;50.118;8.714;2022-12-10T07:52:08;99479.89;;;1.84;69.92
76778;BME280;65721;50.118;8.714;2022-12-10T07:54:33;99481.45;;;1.86;70.07
76778;BME280;65721;50.118;8.714;2022-12-10T07:56:59;99483.90;;;1.90;70.58
76778;BME280;65721;50.118;8.714;2022-12-10T07:59:24;99483.30;;;1.94;70.38
76778;BME280;65721;50.118;8.714;2022-12-10T08:01:49;99484.03;;;1.97;70.26
76778;BME280;65721;50.118;8.714;2022-12-10T08:04:15;99486.76;;;1.98;69.92
76778;BME280;65721;50.118;8.714;2022-12-10T08:06:41;99485.59;;;1.99;69.88
76778;BME280;65721;50.118;8.714;2022-12-10T08:09:06;99484.95;;;2.01;69.66
76778;BME280;65721;50.118;8.714;2022-12-10T08:11:32;99484.48;;;2.03;69.49
76778;BME280;65721;50.118;8.714;2022-12-10T08:13:58;99488.30;;;2.06;69.58
76778;BME280;65721;50.118;8.714;2022-12-10T08:16:25;99491.07;;;2.10;69.63
76778;BME280;65721;50.118;8.714;2022-12-10T08:18:52;99494.04;;;2.15;69.47
76778;BME280;65721;50.118;8.714;2022-12-10T08:21:20;99495.31;;;2.19;69.30
76778;BME280;65721;50.118;8.714;2022-12-10T08:23:46;99498.95;;;2.24;69.13
76778;BME280;65721;50.118;8.714;2022-12-10T08:26:18;99498.33;;;2.27;69.01
76778;BME280;65721;50.118;8.714;2022-12-10T08:28:45;99498.03;;;2.30;69.03
76778;BME280;65721;50.118;8.714;2022-12-10T08:31:12;99498.77;;;2.32;68.71
76778;BME280;65721;50.118;8.714;2022-12-10T08:33:38;99499.98;;;2.33;68.62
76778;BME280;65721;50.118;8.714;2022-12-10T08:36:06;99502.35;;;2.34;68.44
76778;BME280;65721;50.118;8.714;2022-12-10T08:38:32;99505.41;;;2.34;68.39
76778;BME280;65721;50.118;8.714;2022-12-10T08:40:59;99507.81;;;2.36;68.24
76778;BME280;65721;50.118;8.714;2022-12-10T08:43:24;99507.57;;;2.41;68.17
76778;BME280;65721;50.118;8.714;2022-12-10T08:45:50;99514.73;;;2.44;68.25
76778;BME280;65721;50.118;8.714;2022-12-10T08:48:16;99516.17;;;2.48;67.86
76778;BME280;65721;50.118;8.714;2022-12-10T08:50:41;99517.42;;;2.51;67.83
76778;BME280;65721;50.118;8.714;2022-12-10T08:53:07;99521.39;;;2.56;67.76
76778;BME280;65721;50.118;8.714;2022-12-10T08:55:33;99524.24;;;2.64;67.38
76778;BME280;65721;50.118;8.714;2022-12-10T08:57:59;99528.27;;;2.71;67.40
76778;BME280;65721;50.118;8.714;2022-12-10T09:00:25;99529.24;;;2.78;67.12
76778;BME280;65721;50.118;8.714;2022-12-10T09:02:51;99530.35;;;2.83;66.85
76778;BME280;65721;50.118;8.714;2022-12-10T09:05:16;99530.80;;;2.90;66.68
76778;BME280;65721;50.118;8.714;2022-12-10T09:07:42;99530.73;;;2.96;66.54
76778;BME280;65721;50.118;8.714;2022-12-10T09:10:10;99529.81;;;3.03;66.31
76778;BME280;65721;50.118;8.714;2022-12-10T09:12:37;99531.94;;;3.08;66.11
76778;BME280;65721;50.118;8.714;2022-12-10T09:15:05;99536.77;;;3.14;66.04
76778;BME280;65721;50.118;8.714;2022-12-10T09:17:34;99534.19;;;3.21;66.14
76778;BME280;65721;50.118;8.714;2022-12-10T09:20:00;99537.20;;;3.30;65.79
76778;BME280;65721;50.118;8.714;2022-12-10T09:22:26;99538.50;;;3.37;65.59
76778;BME280;65721;50.118;8.714;2022-12-10T09:24:51;99539.45;;;3.44;65.17
76778;BME280;65721;50.118;8.714;2022-12-10T09:27:16;99538.83;;;3.47;64.78
76778;BME280;65721;50.118;8.714;2022-12-10T09:29:43;99540.24;;;3.52;64.77
76778;BME280;65721;50.118;8.714;2022-12-10T09:32:08;99536.30;;;3.61;64.36
76778;BME280;65721;50.118;8.714;2022-12-10T09:34:34;99537.41;;;3.68;64.24
76778;BME280;65721;50.118;8.714;2022-12-10T09:36:59;99538.66;;;3.73;63.94
76778;BME280;65721;50.118;8.714;2022-12-10T09:39:25;99540.05;;;3.75;63.91
76778;BME280;65721;50.118;8.714;2022-12-10T09:42:03;99540.55;;;3.73;63.76
76778;BME280;65721;50.118;8.714;2022-12-10T09:44:53;99544.40;;;3.70;63.93
76778;BME280;65721;50.118;8.714;2022-12-10T09:47:33;99542.13;;;3.65;64.00
76778;BME280;65721;50.118;8.714;2022-12-10T09:50:23;99543.38;;;3.58;64.07
76778;BME280;65721;50.118;8.714;2022-12-10T09:52:51;99548.02;;;3.50;64.20
76778;BME280;65721;50.118;8.714;2022-12-10T09:55:26;99542.67;;;3.44;64.41
76778;BME280;65721;50.118;8.714;2022-12-10T09:57:55;99538.85;;;3.38;64.47
76778;BME280;65721;50.118;8.714;2022-12-10T10:00:34;99535.86;;;3.31;64.63
76778;BME280;65721;50.118;8.714;2022-12-10T10:03:01;99539.36;;;3.26;64.65
76778;BME280;65721;50.118;8.714;2022-12-10T10:05:30;99534.54;;;3.22;64.85
76778;BME280;65721;50.118;8.714;2022-12-10T10:07:59;99538.44;;;3.22;64.90
76778;BME280;65721;50.118;8.714;2022-12-10T10:10:37;99537.08;;;3.22;64.86
76778;BME280;65721;50.118;8.714;2022-12-10T10:15:34;99534.89;;;3.24;64.91
76778;BME280;65721;50.118;8.714;2022-12-10T10:18:23;99536.00;;;3.29;65.07
76778;BME280;65721;50.118;8.714;2022-12-10T10:20:53;99536.27;;;3.35;64.98
76778;BME280;65721;50.118;8.714;2022-12-10T10:23:19;99537.72;;;3.42;64.88
76778;BME280;65721;50.118;8.714;2022-12-10T10:25:45;99539.70;;;3.49;64.68
76778;BME280;65721;50.118;8.714;2022-12-10T10:28:12;99538.45;;;3.58;64.43
76778;BME280;65721;50.118;8.714;2022-12-10T10:30:41;99537.55;;;3.65;64.25
76778;BME280;65721;50.118;8.714;2022-12-10T10:33:09;99538.29;;;3.71;64.12
76778;BME280;65721;50.118;8.714;2022-12-10T10:35:47;99540.23;;;3.76;64.33
76778;BME280;65721;50.118;8.714;2022-12-10T10:38:17;99536.91;;;3.80;63.94
76778;BME280;65721;50.118;8.714;2022-12-10T10:40:45;99536.40;;;3.81;63.98
76778;BME280;65721;50.118;8.714;2022-12-10T10:43:19;99536.30;;;3.86;63.85
76778;BME280;65721;50.118;8.714;2022-12-10T10:46:10;99533.13;;;3.90;63.56
76778;BME280;65721;50.118;8.714;2022-12-10T10:48:37;99532.13;;;3.93;63.50
76778;BME280;65721;50.118;8.714;2022-12-10T10:51:17;99530.95;;;3.93;63.35
76778;BME280;65721;50.118;8.714;2022-12-10T10:53:47;99531.89;;;4.00;63.46
76778;BME280;65721;50.118;8.714;2022-12-10T10:56:19;99532.13;;;4.07;63.44
76778;BME280;65721;50.118;8.714;2022-12-10T10:58:51;99536.60;;;4.11;63.34
76778;BME280;65721;50.118;8.714;2022-12-10T11:01:18;99535.24;;;4.11;63.37
76778;BME280;65721;50.118;8.714;2022-12-10T11:03:54;99536.42;;;4.10;63.59
76778;BME280;65721;50.118;8.714;2022-12-10T11:06:20;99538.45;;;4.09;63.52
76778;BME280;65721;50.118;8.714;2022-12-10T11:08:47;99538.77;;;4.07;63.75
76778;BME280;65721;50.118;8.714;2022-12-10T11:11:19;99534.90;;;4.10;64.39
76778;BME280;65721;50.118;8.714;2022-12-10T11:13:47;99535.30;;;4.31;63.87
76778;BME280;65721;50.118;8.714;2022-12-10T11:16:22;99536.65;;;4.46;63.20
76778;BME280;65721;50.118;8.714;2022-12-10T11:19:01;99537.27;;;4.55;62.83
76778;BME280;65721;50.118;8.714;2022-12-10T11:21:33;99534.11;;;4.63;62.82
76778;BME280;65721;50.118;8.714;2022-12-10T11:24:00;99535.87;;;4.70;62.58
76778;BME280;65721;50.118;8.714;2022-12-10T11:26:53;99540.20;;;4.78;62.39
76778;BME280;65721;50.118;8.714;2022-12-10T11:32:26;99537.96;;;4.93;61.85
76778;BME280;65721;50.118;8.714;2022-12-10T11:37:32;99533.70;;;4.91;61.47
76778;BME280;65721;50.118;8.714;2022-12-10T11:48:34;99537.21;;;5.27;60.38
76778;BME280;65721;50.118;8.714;2022-12-10T11:51:09;99531.38;;;5.72;59.78
76778;BME280;65721;50.118;8.714;2022-12-10T11:54:00;99534.29;;;7.15;58.21
76778;BME280;65721;50.118;8.714;2022-12-10T11:56:43;99527.81;;;8.95;56.16
76778;BME280;65721;50.118;8.714;2022-12-10T12:02:30;99518.20;;;13.34;47.82
76778;BME280;65721;50.118;8.714;2022-12-10T12:07:48;99522.29;;;18.11;39.27
76778;BME280;65721;50.118;8.714;2022-12-10T12:13:18;99518.80;;;21.15;34.01
76778;BME280;65721;50.118;8.714;2022-12-10T12:16:01;99518.68;;;22.42;31.71
76778;BME280;65721;50.118;8.714;2022-12-10T12:18:49;99515.06;;;23.59;29.64
76778;BME280;65721;50.118;8.714;2022-12-10T12:21:18;99515.16;;;24.51;27.94
76778;BME280;65721;50.118;8.714;2022-12-10T12:23:49;99512.08;;;25.01;26.56
76778;BME280;65721;50.118;8.714;2022-12-10T12:28:56;99513.81;;;23.95;26.07
76778;BME280;65721;50.118;8.714;2022-12-10T12:31:34;99517.58;;;22.92;26.64
76778;BME280;65721;50.118;8.714;2022-12-10T12:34:21;99520.77;;;21.80;27.38
76778;BME280;65721;50.118;8.714;2022-12-10T12:36:49;99521.80;;;20.20;28.31
76778;BME280;65721;50.118;8.714;2022-12-10T12:39:47;99524.90;;;18.61;29.61
76778;BME280;65721;50.118;8.714;2022-12-10T12:42:26;99526.30;;;16.79;31.23
76778;BME280;65721;50.118;8.714;2022-12-10T12:45:14;99528.77;;;15.25;33.05
76778;BME280;65721;50.118;8.714;2022-12-10T12:47:50;99534.52;;;13.91;34.74
76778;BME280;65721;50.118;8.714;2022-12-10T12:50:27;99540.04;;;12.89;36.20
76778;BME280;65721;50.118;8.714;2022-12-10T12:52:59;99544.00;;;12.18;37.60
76778;BME280;65721;50.118;8.714;2022-12-10T12:55:33;99547.80;;;11.53;38.57
76778;BME280;65721;50.118;8.714;2022-12-10T12:58:54;99554.19;;;10.87;39.68
76778;BME280;65721;50.118;8.714;2022-12-10T13:03:57;99563.17;;;9.33;42.39
76778;BME280;65721;50.118;8.714;2022-12-10T13:06:26;99563.20;;;8.85;43.16
76778;BME280;65721;50.118;8.714;2022-12-10T13:19:40;99564.23;;;10.91;42.16
76778;BME280;65721;50.118;8.714;2022-12-10T13:25:16;99557.00;;;12.22;39.52
76778;BME280;65721;50.118;8.714;2022-12-10T13:27:57;99564.06;;;11.57;39.51
76778;BME280;65721;50.118;8.714;2022-12-10T13:30:31;99568.16;;;10.83;40.59
76778;BME280;65721;50.118;8.714;2022-12-10T13:33:13;99572.14;;;10.15;41.28
76778;BME280;65721;50.118;8.714;2022-12-10T13:35:58;99574.71;;;9.46;42.34
76778;BME280;65721;50.118;8.714;2022-12-10T13:38:27;99578.96;;;8.82;43.60
76778;BME280;65721;50.118;8.714;2022-12-10T13:41:03;99578.52;;;8.37;44.47
76778;BME280;65721;50.118;8.714;2022-12-10T13:43:55;99581.20;;;7.95;45.33
76778;BME280;65721;50.118;8.714;2022-12-10T13:46:53;99587.09;;;7.63;46.03
76778;BME280;65721;50.118;8.714;2022-12-10T13:49:22;99591.88;;;7.45;46.53
76778;BME280;65721;50.118;8.714;2022-12-10T14:06:20;99617.34;;;7.29;47.61
76778;BME280;65721;50.118;8.714;2022-12-10T14:08:57;99625.69;;;7.06;48.05
76778;BME280;65721;50.118;8.714;2022-12-10T14:11:55;99629.73;;;6.82;48.63
76778;BME280;65721;50.118;8.714;2022-12-10T14:14:35;99632.05;;;6.59;49.08
76778;BME280;65721;50.118;8.714;2022-12-10T14:17:05;99634.72;;;6.44;49.44
76778;BME280;65721;50.118;8.714;2022-12-10T14:19:33;99634.98;;;6.32;49.61
76778;BME280;65721;50.118;8.714;2022-12-10T14:22:05;99636.82;;;6.20;49.75
76778;BME280;65721;50.118;8.714;2022-12-10T14:24:37;99642.89;;;6.07;50.33
76778;BME280;65721;50.118;8.714;2022-12-10T14:27:23;99647.73;;;5.92;51.10
76778;BME280;65721;50.118;8.714;2022-12-10T14:29:50;99652.33;;;5.72;51.48
76778;BME280;65721;50.118;8.714;2022-12-10T14:32:19;99651.29;;;5.47;51.40
76778;BME280;65721;50.118;8.714;2022-12-10T14:34:52;99655.67;;;5.26;51.75